sensor_id;sensor_type;location;lat;lon;timestamp;P1;durP1;ratioP1;P2;durP2;ratioP2
6860;SDS011;3469;47.060;15.460;2024-01-15T00:01:01;63.20;;;25.05;;
6860;SDS011;3469;47.060;15.460;2024-01-15T00:03:32;52.35;;;24.48;;
6860;SDS011;3469;47.060;15.460;2024-01-15T00:06:02;54.85;;;26.33;;
6860;SDS011;3469;47.060;15.460;2024-01-15T00:08:33;47.85;;;23.63;;
6860;SDS011;3469;47.060;15.460;2024-01-15T00:11:06;51.97;;;24.58;;
6860;SDS011;3469;47.060;15.460;2024-01-15T00:13:37;52.20;;;25.25;;
6860;SDS011;3469;47.060;15.460;2024-01-15T00:16:07;51.00;;;24.02;;
6860;SDS011;3469;47.060;15.460;2024-01-15T00:18:39;53.67;;;25.05;;
6860;SDS011;3469;47.060;15.460;2024-01-15T00:21:09;63.22;;;27.55;;
6860;SDS011;3469;47.060;15.460;2024-01-15T00:23:41;52.38;;;24.73;;
6860;SDS011;3469;47.060;15.460;2024-01-15T00:26:15;64.63;;;29.30;;
6860;SDS011;3469;47.060;15.460;2024-01-15T00:28:45;53.42;;;25.20;;
6860;SDS011;3469;47.060;15.460;2024-01-15T00:31:16;64.68;;;28.38;;
6860;SDS011;3469;47.060;15.460;2024-01-15T00:33:46;57.35;;;27.08;;
6860;SDS011;3469;47.060;15.460;2024-01-15T00:36:17;70.55;;;30.02;;
6860;SDS011;3469;47.060;15.460;2024-01-15T00:38:47;55.47;;;25.77;;
6860;SDS011;3469;47.060;15.460;2024-01-15T00:41:20;56.63;;;26.00;;
6860;SDS011;3469;47.060;15.460;2024-01-15T00:43:51;68.03;;;29.77;;
6860;SDS011;3469;47.060;15.460;2024-01-15T00:46:21;74.18;;;29.77;;
6860;SDS011;3469;47.060;15.460;2024-01-15T00:48:51;66.28;;;28.52;;
6860;SDS011;3469;47.060;15.460;2024-01-15T00:51:22;75.45;;;31.40;;
6860;SDS011;3469;47.060;15.460;2024-01-15T00:53:52;69.30;;;29.48;;
6860;SDS011;3469;47.060;15.460;2024-01-15T00:56:25;67.45;;;29.75;;
6860;SDS011;3469;47.060;15.460;2024-01-15T00:58:55;60.15;;;27.02;;
6860;SDS011;3469;47.060;15.460;2024-01-15T01:01:26;67.38;;;29.52;;
6860;SDS011;3469;47.060;15.460;2024-01-15T01:03:56;62.47;;;27.58;;
6860;SDS011;3469;47.060;15.460;2024-01-15T01:06:27;69.45;;;27.88;;
6860;SDS011;3469;47.060;15.460;2024-01-15T01:09:00;62.78;;;26.75;;
6860;SDS011;3469;47.060;15.460;2024-01-15T01:11:32;65.32;;;28.52;;
6860;SDS011;3469;47.060;15.460;2024-01-15T01:14:03;51.40;;;24.65;;
6860;SDS011;3469;47.060;15.460;2024-01-15T01:16:33;77.47;;;28.75;;
6860;SDS011;3469;47.060;15.460;2024-01-15T01:19:06;71.07;;;28.20;;
6860;SDS011;3469;47.060;15.460;2024-01-15T01:21:37;56.15;;;25.90;;
6860;SDS011;3469;47.060;15.460;2024-01-15T01:24:07;75.43;;;26.45;;
6860;SDS011;3469;47.060;15.460;2024-01-15T01:26:40;65.60;;;28.98;;
6860;SDS011;3469;47.060;15.460;2024-01-15T01:29:10;72.45;;;30.25;;
6860;SDS011;3469;47.060;15.460;2024-01-15T01:31:42;57.83;;;27.15;;
6860;SDS011;3469;47.060;15.460;2024-01-15T01:34:14;68.93;;;28.08;;
6860;SDS011;3469;47.060;15.460;2024-01-15T01:36:45;58.90;;;26.23;;
6860;SDS011;3469;47.060;15.460;2024-01-15T01:39:15;61.53;;;28.17;;
6860;SDS011;3469;47.060;15.460;2024-01-15T01:41:48;61.47;;;27.92;;
6860;SDS011;3469;47.060;15.460;2024-01-15T01:44:18;62.72;;;25.73;;
6860;SDS011;3469;47.060;15.460;2024-01-15T01:46:49;59.33;;;28.42;;
6860;SDS011;3469;47.060;15.460;2024-01-15T01:49:19;60.75;;;27.70;;
6860;SDS011;3469;47.060;15.460;2024-01-15T01:51:50;65.20;;;28.05;;
6860;SDS011;3469;47.060;15.460;2024-01-15T01:54:20;60.17;;;28.67;;
6860;SDS011;3469;47.060;15.460;2024-01-15T01:56:53;61.05;;;27.05;;
6860;SDS011;3469;47.060;15.460;2024-01-15T01:59:24;66.45;;;28.40;;
6860;SDS011;3469;47.060;15.460;2024-01-15T02:01:56;77.50;;;30.75;;
6860;SDS011;3469;47.060;15.460;2024-01-15T02:04:27;71.15;;;29.25;;
6860;SDS011;3469;47.060;15.460;2024-01-15T02:06:58;72.13;;;29.08;;
6860;SDS011;3469;47.060;15.460;2024-01-15T02:09:29;59.67;;;29.67;;
6860;SDS011;3469;47.060;15.460;2024-01-15T02:12:02;76.47;;;29.88;;
6860;SDS011;3469;47.060;15.460;2024-01-15T02:14:33;63.13;;;27.88;;
6860;SDS011;3469;47.060;15.460;2024-01-15T02:17:03;58.17;;;26.77;;
6860;SDS011;3469;47.060;15.460;2024-01-15T02:19:34;76.10;;;31.67;;
6860;SDS011;3469;47.060;15.460;2024-01-15T02:22:06;73.78;;;29.67;;
6860;SDS011;3469;47.060;15.460;2024-01-15T02:24:39;51.55;;;26.77;;
6860;SDS011;3469;47.060;15.460;2024-01-15T02:27:10;68.65;;;27.98;;
6860;SDS011;3469;47.060;15.460;2024-01-15T02:29:40;67.13;;;27.55;;
6860;SDS011;3469;47.060;15.460;2024-01-15T02:32:10;57.47;;;27.05;;
6860;SDS011;3469;47.060;15.460;2024-01-15T02:34:41;59.22;;;27.42;;
6860;SDS011;3469;47.060;15.460;2024-01-15T02:37:12;53.78;;;26.42;;
6860;SDS011;3469;47.060;15.460;2024-01-15T02:39:44;65.70;;;28.70;;
6860;SDS011;3469;47.060;15.460;2024-01-15T02:42:15;62.90;;;27.23;;
6860;SDS011;3469;47.060;15.460;2024-01-15T02:44:45;70.18;;;27.48;;
6860;SDS011;3469;47.060;15.460;2024-01-15T02:47:15;63.30;;;26.02;;
6860;SDS011;3469;47.060;15.460;2024-01-15T02:49:45;57.30;;;26.83;;
6860;SDS011;3469;47.060;15.460;2024-01-15T02:52:16;62.92;;;26.48;;
6860;SDS011;3469;47.060;15.460;2024-01-15T02:54:48;54.97;;;25.80;;
6860;SDS011;3469;47.060;15.460;2024-01-15T02:57:19;57.22;;;27.50;;
6860;SDS011;3469;47.060;15.460;2024-01-15T02:59:49;56.65;;;27.83;;
6860;SDS011;3469;47.060;15.460;2024-01-15T03:02:19;57.00;;;27.27;;
6860;SDS011;3469;47.060;15.460;2024-01-15T03:04:50;61.53;;;26.92;;
6860;SDS011;3469;47.060;15.460;2024-01-15T03:07:20;70.05;;;32.25;;
6860;SDS011;3469;47.060;15.460;2024-01-15T03:09:53;69.32;;;29.73;;
6860;SDS011;3469;47.060;15.460;2024-01-15T03:12:23;77.60;;;27.48;;
6860;SDS011;3469;47.060;15.460;2024-01-15T03:14:53;65.63;;;27.45;;
6860;SDS011;3469;47.060;15.460;2024-01-15T03:17:24;57.97;;;24.48;;
6860;SDS011;3469;47.060;15.460;2024-01-15T03:19:54;56.45;;;22.08;;
6860;SDS011;3469;47.060;15.460;2024-01-15T03:22:24;63.15;;;26.98;;
6860;SDS011;3469;47.060;15.460;2024-01-15T03:24:58;57.42;;;25.45;;
6860;SDS011;3469;47.060;15.460;2024-01-15T03:27:29;62.35;;;26.40;;
6860;SDS011;3469;47.060;15.460;2024-01-15T03:29:59;59.47;;;26.23;;
6860;SDS011;3469;47.060;15.460;2024-01-15T03:32:30;63.88;;;26.65;;
6860;SDS011;3469;47.060;15.460;2024-01-15T03:35:00;57.92;;;24.48;;
6860;SDS011;3469;47.060;15.460;2024-01-15T03:37:31;53.70;;;25.20;;
6860;SDS011;3469;47.060;15.460;2024-01-15T03:40:05;56.22;;;24.02;;
6860;SDS011;3469;47.060;15.460;2024-01-15T03:42:37;62.72;;;25.13;;
6860;SDS011;3469;47.060;15.460;2024-01-15T03:45:07;62.85;;;24.95;;
6860;SDS011;3469;47.060;15.460;2024-01-15T03:47:38;70.05;;;27.23;;
6860;SDS011;3469;47.060;15.460;2024-01-15T03:50:09;57.78;;;23.00;;
6860;SDS011;3469;47.060;15.460;2024-01-15T03:52:39;55.83;;;25.95;;
6860;SDS011;3469;47.060;15.460;2024-01-15T03:55:12;56.95;;;24.90;;
6860;SDS011;3469;47.060;15.460;2024-01-15T03:57:42;54.22;;;25.30;;
6860;SDS011;3469;47.060;15.460;2024-01-15T04:00:14;49.17;;;27.23;;
6860;SDS011;3469;47.060;15.460;2024-01-15T04:02:46;55.15;;;23.23;;
6860;SDS011;3469;47.060;15.460;2024-01-15T04:05:16;46.97;;;23.73;;
6860;SDS011;3469;47.060;15.460;2024-01-15T04:07:47;52.42;;;23.38;;
6860;SDS011;3469;47.060;15.460;2024-01-15T04:10:20;49.60;;;24.10;;
6860;SDS011;3469;47.060;15.460;2024-01-15T04:12:50;44.25;;;22.58;;
6860;SDS011;3469;47.060;15.460;2024-01-15T04:15:20;57.53;;;27.92;;
6860;SDS011;3469;47.060;15.460;2024-01-15T04:17:51;86.88;;;32.95;;
6860;SDS011;3469;47.060;15.460;2024-01-15T04:20:21;83.10;;;33.78;;
6860;SDS011;3469;47.060;15.460;2024-01-15T04:22:51;76.32;;;31.13;;
6860;SDS011;3469;47.060;15.460;2024-01-15T04:25:24;96.15;;;35.85;;
6860;SDS011;3469;47.060;15.460;2024-01-15T04:27:55;66.20;;;30.30;;
6860;SDS011;3469;47.060;15.460;2024-01-15T04:30:25;80.68;;;31.33;;
6860;SDS011;3469;47.060;15.460;2024-01-15T04:32:55;77.28;;;32.63;;
6860;SDS011;3469;47.060;15.460;2024-01-15T04:35:26;71.57;;;32.45;;
6860;SDS011;3469;47.060;15.460;2024-01-15T04:37:56;73.70;;;31.65;;
6860;SDS011;3469;47.060;15.460;2024-01-15T04:40:29;68.68;;;27.50;;
6860;SDS011;3469;47.060;15.460;2024-01-15T04:42:59;68.93;;;29.55;;
6860;SDS011;3469;47.060;15.460;2024-01-15T04:45:29;67.07;;;29.83;;
6860;SDS011;3469;47.060;15.460;2024-01-15T04:47:59;58.20;;;27.05;;
6860;SDS011;3469;47.060;15.460;2024-01-15T04:50:30;64.70;;;27.38;;
6860;SDS011;3469;47.060;15.460;2024-01-15T04:53:00;77.80;;;29.83;;
6860;SDS011;3469;47.060;15.460;2024-01-15T04:55:33;70.85;;;27.20;;
6860;SDS011;3469;47.060;15.460;2024-01-15T04:58:03;80.65;;;29.08;;
6860;SDS011;3469;47.060;15.460;2024-01-15T05:00:34;65.25;;;25.13;;
6860;SDS011;3469;47.060;15.460;2024-01-15T05:03:04;68.53;;;31.35;;
6860;SDS011;3469;47.060;15.460;2024-01-15T05:05:35;70.03;;;28.48;;
6860;SDS011;3469;47.060;15.460;2024-01-15T05:08:05;72.90;;;26.80;;
6860;SDS011;3469;47.060;15.460;2024-01-15T05:10:39;64.65;;;29.05;;
6860;SDS011;3469;47.060;15.460;2024-01-15T05:13:09;65.93;;;28.67;;
6860;SDS011;3469;47.060;15.460;2024-01-15T05:15:40;69.22;;;30.45;;
6860;SDS011;3469;47.060;15.460;2024-01-15T05:18:10;70.63;;;26.25;;
6860;SDS011;3469;47.060;15.460;2024-01-15T05:20:41;58.47;;;26.33;;
6860;SDS011;3469;47.060;15.460;2024-01-15T05:23:12;65.68;;;28.52;;
6860;SDS011;3469;47.060;15.460;2024-01-15T05:25:44;61.83;;;26.65;;
6860;SDS011;3469;47.060;15.460;2024-01-15T05:28:17;79.28;;;28.25;;
6860;SDS011;3469;47.060;15.460;2024-01-15T05:30:47;70.13;;;30.17;;
6860;SDS011;3469;47.060;15.460;2024-01-15T05:33:18;72.72;;;26.90;;
6860;SDS011;3469;47.060;15.460;2024-01-15T05:35:49;62.33;;;26.85;;
6860;SDS011;3469;47.060;15.460;2024-01-15T05:38:20;72.75;;;30.30;;
6860;SDS011;3469;47.060;15.460;2024-01-15T05:40:53;67.00;;;28.85;;
6860;SDS011;3469;47.060;15.460;2024-01-15T05:43:23;68.55;;;28.75;;
6860;SDS011;3469;47.060;15.460;2024-01-15T05:45:54;68.57;;;28.08;;
6860;SDS011;3469;47.060;15.460;2024-01-15T05:48:25;61.42;;;27.52;;
6860;SDS011;3469;47.060;15.460;2024-01-15T05:50:56;65.55;;;26.25;;
6860;SDS011;3469;47.060;15.460;2024-01-15T05:53:26;68.18;;;27.35;;
6860;SDS011;3469;47.060;15.460;2024-01-15T05:55:59;65.93;;;26.77;;
6860;SDS011;3469;47.060;15.460;2024-01-15T05:58:29;70.43;;;29.20;;
6860;SDS011;3469;47.060;15.460;2024-01-15T06:01:00;64.20;;;28.92;;
6860;SDS011;3469;47.060;15.460;2024-01-15T06:03:30;73.75;;;29.35;;
6860;SDS011;3469;47.060;15.460;2024-01-15T06:06:00;66.43;;;28.40;;
6860;SDS011;3469;47.060;15.460;2024-01-15T06:08:31;62.13;;;27.05;;
6860;SDS011;3469;47.060;15.460;2024-01-15T06:11:05;68.65;;;27.88;;
6860;SDS011;3469;47.060;15.460;2024-01-15T06:13:36;61.55;;;26.08;;
6860;SDS011;3469;47.060;15.460;2024-01-15T06:16:11;64.47;;;27.50;;
6860;SDS011;3469;47.060;15.460;2024-01-15T06:18:43;66.65;;;28.05;;
6860;SDS011;3469;47.060;15.460;2024-01-15T06:21:14;69.70;;;27.92;;
6860;SDS011;3469;47.060;15.460;2024-01-15T06:23:45;66.45;;;27.50;;
6860;SDS011;3469;47.060;15.460;2024-01-15T06:26:18;66.80;;;25.90;;
6860;SDS011;3469;47.060;15.460;2024-01-15T06:28:48;73.97;;;30.52;;
6860;SDS011;3469;47.060;15.460;2024-01-15T06:31:19;65.63;;;26.48;;
6860;SDS011;3469;47.060;15.460;2024-01-15T06:33:49;68.88;;;26.00;;
6860;SDS011;3469;47.060;15.460;2024-01-15T06:36:20;64.05;;;29.42;;
6860;SDS011;3469;47.060;15.460;2024-01-15T06:38:50;62.60;;;28.27;;
6860;SDS011;3469;47.060;15.460;2024-01-15T06:41:23;77.00;;;28.85;;
6860;SDS011;3469;47.060;15.460;2024-01-15T06:43:54;73.25;;;28.23;;
6860;SDS011;3469;47.060;15.460;2024-01-15T06:46:24;70.00;;;28.70;;
6860;SDS011;3469;47.060;15.460;2024-01-15T06:48:54;67.43;;;28.58;;
6860;SDS011;3469;47.060;15.460;2024-01-15T06:51:24;64.00;;;28.45;;
6860;SDS011;3469;47.060;15.460;2024-01-15T06:53:55;63.90;;;28.33;;
6860;SDS011;3469;47.060;15.460;2024-01-15T06:56:28;54.53;;;25.20;;
6860;SDS011;3469;47.060;15.460;2024-01-15T06:58:58;55.63;;;25.02;;
6860;SDS011;3469;47.060;15.460;2024-01-15T07:01:29;67.40;;;28.60;;
6860;SDS011;3469;47.060;15.460;2024-01-15T07:04:00;71.70;;;27.45;;
6860;SDS011;3469;47.060;15.460;2024-01-15T07:06:30;55.85;;;27.58;;
6860;SDS011;3469;47.060;15.460;2024-01-15T07:09:00;67.75;;;28.95;;
6860;SDS011;3469;47.060;15.460;2024-01-15T07:11:34;56.58;;;26.00;;
6860;SDS011;3469;47.060;15.460;2024-01-15T07:14:04;67.97;;;26.88;;
6860;SDS011;3469;47.060;15.460;2024-01-15T07:16:35;70.22;;;30.55;;
6860;SDS011;3469;47.060;15.460;2024-01-15T07:19:06;71.15;;;29.63;;
6860;SDS011;3469;47.060;15.460;2024-01-15T07:21:36;68.93;;;30.30;;
6860;SDS011;3469;47.060;15.460;2024-01-15T07:24:07;77.75;;;30.58;;
6860;SDS011;3469;47.060;15.460;2024-01-15T07:26:40;70.93;;;29.42;;
6860;SDS011;3469;47.060;15.460;2024-01-15T07:29:10;69.95;;;28.63;;
6860;SDS011;3469;47.060;15.460;2024-01-15T07:31:40;72.60;;;30.90;;
6860;SDS011;3469;47.060;15.460;2024-01-15T07:34:11;75.07;;;32.10;;
6860;SDS011;3469;47.060;15.460;2024-01-15T07:36:41;82.05;;;31.10;;
6860;SDS011;3469;47.060;15.460;2024-01-15T07:39:12;74.35;;;30.35;;
6860;SDS011;3469;47.060;15.460;2024-01-15T07:41:45;70.25;;;29.98;;
6860;SDS011;3469;47.060;15.460;2024-01-15T07:44:15;68.70;;;29.23;;
6860;SDS011;3469;47.060;15.460;2024-01-15T07:46:45;69.65;;;28.70;;
6860;SDS011;3469;47.060;15.460;2024-01-15T07:49:15;73.20;;;31.85;;
6860;SDS011;3469;47.060;15.460;2024-01-15T07:51:46;73.90;;;34.17;;
6860;SDS011;3469;47.060;15.460;2024-01-15T07:54:16;68.40;;;31.63;;
6860;SDS011;3469;47.060;15.460;2024-01-15T07:56:56;88.72;;;33.83;;
6860;SDS011;3469;47.060;15.460;2024-01-15T07:59:27;89.78;;;30.75;;
6860;SDS011;3469;47.060;15.460;2024-01-15T08:01:58;71.53;;;29.67;;
6860;SDS011;3469;47.060;15.460;2024-01-15T08:04:29;81.95;;;30.77;;
6860;SDS011;3469;47.060;15.460;2024-01-15T08:06:59;80.82;;;32.58;;
6860;SDS011;3469;47.060;15.460;2024-01-15T08:09:27;64.05;;;30.02;;
6860;SDS011;3469;47.060;15.460;2024-01-15T08:12:00;57.95;;;27.35;;
6860;SDS011;3469;47.060;15.460;2024-01-15T08:14:32;70.43;;;31.70;;
6860;SDS011;3469;47.060;15.460;2024-01-15T08:17:03;76.88;;;31.20;;
6860;SDS011;3469;47.060;15.460;2024-01-15T08:19:33;73.35;;;32.63;;
6860;SDS011;3469;47.060;15.460;2024-01-15T08:22:04;78.57;;;29.67;;
6860;SDS011;3469;47.060;15.460;2024-01-15T08:24:34;69.40;;;31.63;;
6860;SDS011;3469;47.060;15.460;2024-01-15T08:27:07;64.57;;;28.83;;
6860;SDS011;3469;47.060;15.460;2024-01-15T08:29:37;76.07;;;31.80;;
6860;SDS011;3469;47.060;15.460;2024-01-15T08:32:07;71.95;;;29.42;;
6860;SDS011;3469;47.060;15.460;2024-01-15T08:34:40;72.68;;;29.42;;
6860;SDS011;3469;47.060;15.460;2024-01-15T08:37:13;70.53;;;30.67;;
6860;SDS011;3469;47.060;15.460;2024-01-15T08:39:44;89.88;;;32.67;;
6860;SDS011;3469;47.060;15.460;2024-01-15T08:42:20;69.72;;;31.23;;
6860;SDS011;3469;47.060;15.460;2024-01-15T08:44:51;81.88;;;32.35;;
6860;SDS011;3469;47.060;15.460;2024-01-15T08:47:21;66.75;;;30.85;;
6860;SDS011;3469;47.060;15.460;2024-01-15T08:49:52;74.53;;;32.67;;
6860;SDS011;3469;47.060;15.460;2024-01-15T08:52:23;79.35;;;31.70;;
6860;SDS011;3469;47.060;15.460;2024-01-15T08:54:53;87.78;;;37.75;;
6860;SDS011;3469;47.060;15.460;2024-01-15T08:57:27;86.35;;;36.58;;
6860;SDS011;3469;47.060;15.460;2024-01-15T08:59:57;70.03;;;32.33;;
6860;SDS011;3469;47.060;15.460;2024-01-15T09:02:27;79.18;;;35.83;;
6860;SDS011;3469;47.060;15.460;2024-01-15T09:04:58;73.97;;;33.67;;
6860;SDS011;3469;47.060;15.460;2024-01-15T09:07:28;71.38;;;32.60;;
6860;SDS011;3469;47.060;15.460;2024-01-15T09:09:58;77.63;;;35.38;;
6860;SDS011;3469;47.060;15.460;2024-01-15T09:12:32;83.20;;;35.03;;
6860;SDS011;3469;47.060;15.460;2024-01-15T09:15:02;76.13;;;33.72;;
6860;SDS011;3469;47.060;15.460;2024-01-15T09:17:33;61.40;;;30.73;;
6860;SDS011;3469;47.060;15.460;2024-01-15T09:20:04;62.45;;;31.92;;
6860;SDS011;3469;47.060;15.460;2024-01-15T09:22:35;63.88;;;32.13;;
6860;SDS011;3469;47.060;15.460;2024-01-15T09:25:06;63.17;;;28.85;;
6860;SDS011;3469;47.060;15.460;2024-01-15T09:27:40;54.80;;;29.90;;
6860;SDS011;3469;47.060;15.460;2024-01-15T09:30:10;48.40;;;25.40;;
6860;SDS011;3469;47.060;15.460;2024-01-15T09:32:42;48.10;;;26.67;;
6860;SDS011;3469;47.060;15.460;2024-01-15T09:35:13;46.63;;;24.98;;
6860;SDS011;3469;47.060;15.460;2024-01-15T09:37:43;48.03;;;23.23;;
6860;SDS011;3469;47.060;15.460;2024-01-15T09:40:14;50.57;;;25.13;;
6860;SDS011;3469;47.060;15.460;2024-01-15T09:42:47;42.73;;;22.93;;
6860;SDS011;3469;47.060;15.460;2024-01-15T09:45:18;47.15;;;21.58;;
6860;SDS011;3469;47.060;15.460;2024-01-15T09:47:48;43.93;;;22.70;;
6860;SDS011;3469;47.060;15.460;2024-01-15T09:50:19;43.20;;;22.90;;
6860;SDS011;3469;47.060;15.460;2024-01-15T09:52:49;36.07;;;18.77;;
6860;SDS011;3469;47.060;15.460;2024-01-15T09:55:20;40.08;;;19.35;;
6860;SDS011;3469;47.060;15.460;2024-01-15T09:57:53;33.03;;;18.70;;
6860;SDS011;3469;47.060;15.460;2024-01-15T10:00:25;40.40;;;20.48;;
6860;SDS011;3469;47.060;15.460;2024-01-15T10:02:56;32.53;;;17.00;;
6860;SDS011;3469;47.060;15.460;2024-01-15T10:05:27;34.23;;;20.27;;
6860;SDS011;3469;47.060;15.460;2024-01-15T10:07:57;35.77;;;19.90;;
6860;SDS011;3469;47.060;15.460;2024-01-15T10:10:28;21.10;;;13.60;;
6860;SDS011;3469;47.060;15.460;2024-01-15T10:13:04;23.83;;;13.57;;
6860;SDS011;3469;47.060;15.460;2024-01-15T10:15:34;22.20;;;13.90;;
6860;SDS011;3469;47.060;15.460;2024-01-15T10:18:06;27.27;;;15.10;;
6860;SDS011;3469;47.060;15.460;2024-01-15T10:20:37;23.00;;;14.20;;
6860;SDS011;3469;47.060;15.460;2024-01-15T10:23:07;21.17;;;13.13;;
6860;SDS011;3469;47.060;15.460;2024-01-15T10:25:37;21.27;;;12.40;;
6860;SDS011;3469;47.060;15.460;2024-01-15T10:28:10;20.87;;;13.20;;
6860;SDS011;3469;47.060;15.460;2024-01-15T10:30:40;24.13;;;14.17;;
6860;SDS011;3469;47.060;15.460;2024-01-15T10:33:11;22.13;;;13.23;;
6860;SDS011;3469;47.060;15.460;2024-01-15T10:35:42;20.07;;;12.30;;
6860;SDS011;3469;47.060;15.460;2024-01-15T10:38:13;25.40;;;13.00;;
6860;SDS011;3469;47.060;15.460;2024-01-15T10:40:45;20.33;;;12.90;;
6860;SDS011;3469;47.060;15.460;2024-01-15T10:43:19;21.43;;;12.93;;
6860;SDS011;3469;47.060;15.460;2024-01-15T10:45:52;16.70;;;11.47;;
6860;SDS011;3469;47.060;15.460;2024-01-15T10:48:23;20.17;;;12.07;;
6860;SDS011;3469;47.060;15.460;2024-01-15T10:50:55;17.17;;;11.00;;
6860;SDS011;3469;47.060;15.460;2024-01-15T10:53:26;18.47;;;11.77;;
6860;SDS011;3469;47.060;15.460;2024-01-15T10:55:56;26.03;;;12.80;;
6860;SDS011;3469;47.060;15.460;2024-01-15T10:58:30;18.80;;;11.93;;
6860;SDS011;3469;47.060;15.460;2024-01-15T11:01:01;16.00;;;10.90;;
6860;SDS011;3469;47.060;15.460;2024-01-15T11:03:32;18.90;;;11.63;;
6860;SDS011;3469;47.060;15.460;2024-01-15T11:06:04;16.27;;;11.60;;
6860;SDS011;3469;47.060;15.460;2024-01-15T11:08:47;23.10;;;12.50;;
6860;SDS011;3469;47.060;15.460;2024-01-15T11:11:18;17.00;;;11.47;;
6860;SDS011;3469;47.060;15.460;2024-01-15T11:13:53;16.10;;;11.57;;
6860;SDS011;3469;47.060;15.460;2024-01-15T11:16:23;16.40;;;10.77;;
6860;SDS011;3469;47.060;15.460;2024-01-15T11:19:03;20.77;;;10.63;;
6860;SDS011;3469;47.060;15.460;2024-01-15T11:21:36;15.00;;;9.70;;
6860;SDS011;3469;47.060;15.460;2024-01-15T11:24:12;15.23;;;10.30;;
6860;SDS011;3469;47.060;15.460;2024-01-15T11:27:07;14.70;;;10.40;;
6860;SDS011;3469;47.060;15.460;2024-01-15T11:29:40;15.93;;;11.10;;
6860;SDS011;3469;47.060;15.460;2024-01-15T11:32:11;14.87;;;10.57;;
6860;SDS011;3469;47.060;15.460;2024-01-15T11:34:52;16.43;;;10.50;;
6860;SDS011;3469;47.060;15.460;2024-01-15T11:37:21;14.80;;;9.60;;
6860;SDS011;3469;47.060;15.460;2024-01-15T11:39:53;13.80;;;9.73;;
6860;SDS011;3469;47.060;15.460;2024-01-15T11:42:24;17.30;;;10.77;;
6860;SDS011;3469;47.060;15.460;2024-01-15T11:44:57;13.10;;;9.73;;
6860;SDS011;3469;47.060;15.460;2024-01-15T11:50:33;15.37;;;9.80;;
6860;SDS011;3469;47.060;15.460;2024-01-15T11:53:04;14.90;;;10.47;;
6860;SDS011;3469;47.060;15.460;2024-01-15T11:55:38;14.73;;;9.77;;
6860;SDS011;3469;47.060;15.460;2024-01-15T11:58:09;14.83;;;8.90;;
6860;SDS011;3469;47.060;15.460;2024-01-15T12:00:42;15.80;;;8.80;;
6860;SDS011;3469;47.060;15.460;2024-01-15T12:03:13;14.90;;;9.37;;
6860;SDS011;3469;47.060;15.460;2024-01-15T12:05:44;13.37;;;10.20;;
6860;SDS011;3469;47.060;15.460;2024-01-15T12:08:14;17.03;;;10.43;;
6860;SDS011;3469;47.060;15.460;2024-01-15T12:10:45;22.80;;;10.70;;
6860;SDS011;3469;47.060;15.460;2024-01-15T12:13:16;16.10;;;10.30;;
6860;SDS011;3469;47.060;15.460;2024-01-15T12:15:49;14.80;;;9.63;;
6860;SDS011;3469;47.060;15.460;2024-01-15T12:18:20;17.17;;;10.37;;
6860;SDS011;3469;47.060;15.460;2024-01-15T12:20:50;14.70;;;10.00;;
6860;SDS011;3469;47.060;15.460;2024-01-15T12:23:24;13.83;;;9.50;;
6860;SDS011;3469;47.060;15.460;2024-01-15T12:25:54;15.10;;;10.40;;
6860;SDS011;3469;47.060;15.460;2024-01-15T12:28:27;15.13;;;10.40;;
6860;SDS011;3469;47.060;15.460;2024-01-15T12:31:00;14.50;;;10.23;;
6860;SDS011;3469;47.060;15.460;2024-01-15T12:33:33;15.30;;;10.70;;
6860;SDS011;3469;47.060;15.460;2024-01-15T12:36:03;12.60;;;9.07;;
6860;SDS011;3469;47.060;15.460;2024-01-15T12:38:34;16.13;;;10.40;;
6860;SDS011;3469;47.060;15.460;2024-01-15T12:41:04;14.67;;;9.57;;
6860;SDS011;3469;47.060;15.460;2024-01-15T12:43:35;15.90;;;10.77;;
6860;SDS011;3469;47.060;15.460;2024-01-15T12:46:08;18.03;;;10.03;;
6860;SDS011;3469;47.060;15.460;2024-01-15T12:48:40;15.07;;;10.50;;
6860;SDS011;3469;47.060;15.460;2024-01-15T12:51:11;15.70;;;11.20;;
6860;SDS011;3469;47.060;15.460;2024-01-15T12:53:41;14.27;;;9.30;;
6860;SDS011;3469;47.060;15.460;2024-01-15T12:56:11;13.33;;;10.63;;
6860;SDS011;3469;47.060;15.460;2024-01-15T12:58:42;16.03;;;10.00;;
6860;SDS011;3469;47.060;15.460;2024-01-15T13:01:15;16.80;;;9.83;;
6860;SDS011;3469;47.060;15.460;2024-01-15T13:03:45;17.00;;;9.30;;
6860;SDS011;3469;47.060;15.460;2024-01-15T13:06:15;16.23;;;11.03;;
6860;SDS011;3469;47.060;15.460;2024-01-15T13:08:46;14.57;;;10.03;;
6860;SDS011;3469;47.060;15.460;2024-01-15T13:11:16;17.43;;;9.50;;
6860;SDS011;3469;47.060;15.460;2024-01-15T13:13:47;16.20;;;10.83;;
6860;SDS011;3469;47.060;15.460;2024-01-15T13:16:20;17.57;;;10.57;;
6860;SDS011;3469;47.060;15.460;2024-01-15T13:18:53;13.00;;;9.30;;
6860;SDS011;3469;47.060;15.460;2024-01-15T13:21:24;15.47;;;9.63;;
6860;SDS011;3469;47.060;15.460;2024-01-15T13:23:54;15.07;;;9.53;;
6860;SDS011;3469;47.060;15.460;2024-01-15T13:26:24;12.43;;;8.73;;
6860;SDS011;3469;47.060;15.460;2024-01-15T13:28:55;13.80;;;8.60;;
6860;SDS011;3469;47.060;15.460;2024-01-15T13:31:28;13.83;;;9.17;;
6860;SDS011;3469;47.060;15.460;2024-01-15T13:33:58;13.43;;;9.23;;
6860;SDS011;3469;47.060;15.460;2024-01-15T13:36:30;14.27;;;9.07;;
6860;SDS011;3469;47.060;15.460;2024-01-15T13:39:00;11.93;;;9.17;;
6860;SDS011;3469;47.060;15.460;2024-01-15T13:41:30;13.47;;;9.10;;
6860;SDS011;3469;47.060;15.460;2024-01-15T13:44:01;12.97;;;9.40;;
6860;SDS011;3469;47.060;15.460;2024-01-15T13:46:34;16.53;;;9.53;;
6860;SDS011;3469;47.060;15.460;2024-01-15T13:49:05;14.30;;;10.07;;
6860;SDS011;3469;47.060;15.460;2024-01-15T13:51:36;15.00;;;9.37;;
6860;SDS011;3469;47.060;15.460;2024-01-15T13:54:07;14.67;;;8.97;;
6860;SDS011;3469;47.060;15.460;2024-01-15T13:56:37;14.40;;;9.70;;
6860;SDS011;3469;47.060;15.460;2024-01-15T13:59:08;13.60;;;9.27;;
6860;SDS011;3469;47.060;15.460;2024-01-15T14:01:41;13.23;;;8.53;;
6860;SDS011;3469;47.060;15.460;2024-01-15T14:04:13;14.37;;;9.13;;
6860;SDS011;3469;47.060;15.460;2024-01-15T14:06:44;11.87;;;8.60;;
6860;SDS011;3469;47.060;15.460;2024-01-15T14:09:14;13.57;;;8.63;;
6860;SDS011;3469;47.060;15.460;2024-01-15T14:11:44;14.43;;;9.50;;
6860;SDS011;3469;47.060;15.460;2024-01-15T14:14:14;16.17;;;9.07;;
6860;SDS011;3469;47.060;15.460;2024-01-15T14:16:48;12.70;;;8.80;;
6860;SDS011;3469;47.060;15.460;2024-01-15T14:19:19;14.53;;;8.90;;
6860;SDS011;3469;47.060;15.460;2024-01-15T14:21:50;14.70;;;9.03;;
6860;SDS011;3469;47.060;15.460;2024-01-15T14:24:20;12.63;;;7.97;;
6860;SDS011;3469;47.060;15.460;2024-01-15T14:26:50;10.93;;;7.97;;
6860;SDS011;3469;47.060;15.460;2024-01-15T14:29:20;13.77;;;8.10;;
6860;SDS011;3469;47.060;15.460;2024-01-15T14:31:55;12.90;;;8.13;;
6860;SDS011;3469;47.060;15.460;2024-01-15T14:34:26;11.63;;;8.23;;
6860;SDS011;3469;47.060;15.460;2024-01-15T14:36:56;12.00;;;8.20;;
6860;SDS011;3469;47.060;15.460;2024-01-15T14:39:26;12.30;;;7.60;;
6860;SDS011;3469;47.060;15.460;2024-01-15T14:41:59;12.70;;;7.10;;
6860;SDS011;3469;47.060;15.460;2024-01-15T14:44:29;11.57;;;7.20;;
6860;SDS011;3469;47.060;15.460;2024-01-15T14:47:03;11.10;;;7.63;;
6860;SDS011;3469;47.060;15.460;2024-01-15T14:49:34;9.23;;;6.47;;
6860;SDS011;3469;47.060;15.460;2024-01-15T14:52:05;12.13;;;7.33;;
6860;SDS011;3469;47.060;15.460;2024-01-15T14:54:35;10.60;;;6.60;;
6860;SDS011;3469;47.060;15.460;2024-01-15T14:57:06;11.33;;;7.07;;
6860;SDS011;3469;47.060;15.460;2024-01-15T14:59:36;11.43;;;7.40;;
6860;SDS011;3469;47.060;15.460;2024-01-15T15:02:10;14.77;;;8.43;;